createdAt,value
2023-02-04T00:00:22.473Z,99938.13
2023-02-04T00:02:51.714Z,99946.03
2023-02-04T00:05:19.952Z,99930.50
2023-02-04T00:07:47.778Z,99920.09
2023-02-04T00:10:15.863Z,99932.00
2023-02-04T00:12:43.623Z,99939.53
2023-02-04T00:15:11.691Z,99938.53
2023-02-04T00:17:39.649Z,99939.81
2023-02-04T00:20:09.900Z,99938.91
2023-02-04T00:22:37.817Z,99927.50
2023-02-04T00:25:06.059Z,99935.84
2023-02-04T00:27:33.971Z,99944.88
2023-02-04T00:30:01.755Z,99943.66
2023-02-04T00:32:29.578Z,99946.94
2023-02-04T00:34:57.356Z,99945.53
2023-02-04T00:37:26.443Z,99946.94
2023-02-04T00:39:54.265Z,99946.53
2023-02-04T00:42:22.029Z,99945.53
2023-02-04T00:44:49.874Z,99953.06
2023-02-04T00:47:18.180Z,99958.06
2023-02-04T00:49:46.043Z,99962.84
2023-02-04T00:52:13.802Z,99960.13
2023-02-04T00:54:43.504Z,99965.75
2023-02-04T00:57:11.356Z,99968.88
2023-02-04T00:59:39.162Z,99962.63
2023-02-04T01:02:06.906Z,99960.88
2023-02-04T01:04:36.852Z,99974.25
2023-02-04T01:07:04.751Z,99970.88
2023-02-04T01:09:34.778Z,99971.88
2023-02-04T01:12:04.073Z,99987.69
2023-02-04T01:14:31.851Z,99977.09
2023-02-04T01:16:59.582Z,99971.59
2023-02-04T01:19:27.535Z,99961.84
2023-02-04T01:21:55.484Z,99970.91
2023-02-04T01:24:24.352Z,99983.84
2023-02-04T01:27:12.100Z,99979.19
2023-02-04T01:29:39.990Z,99988.47
2023-02-04T01:32:07.814Z,99985.31
2023-02-04T01:34:35.702Z,99982.81
2023-02-04T01:37:03.474Z,99986.22
2023-02-04T01:39:34.087Z,99986.34
2023-02-04T01:42:02.054Z,99982.44
2023-02-04T01:44:31.617Z,99994.72
2023-02-04T01:46:59.755Z,99998.47
2023-02-04T01:49:28.120Z,99997.50
2023-02-04T01:51:58.805Z,99994.00
2023-02-04T01:54:27.525Z,99987.28
2023-02-04T01:56:56.040Z,99993.47
2023-02-04T01:59:26.178Z,99996.34
2023-02-04T02:01:55.818Z,100001.63
2023-02-04T02:04:30.209Z,100003.72
2023-02-04T02:07:00.785Z,100007.97
2023-02-04T02:09:31.855Z,100014.06
2023-02-04T02:11:59.910Z,100023.66
2023-02-04T02:14:27.741Z,100022.94
2023-02-04T02:16:56.964Z,100016.16
2023-02-04T02:19:29.555Z,100012.03
2023-02-04T02:22:03.601Z,100023.38
2023-02-04T02:24:33.764Z,100023.78
2023-02-04T02:27:07.268Z,100030.69
2023-02-04T02:29:35.321Z,100036.59
2023-02-04T02:32:03.385Z,100048.00
2023-02-04T02:34:31.753Z,100047.63
2023-02-04T02:37:01.474Z,100056.84
2023-02-04T02:39:29.605Z,100041.41
2023-02-04T02:42:00.060Z,100037.00
2023-02-04T02:44:30.112Z,100034.09
2023-02-04T02:46:58.465Z,100039.47
2023-02-04T02:49:27.413Z,100040.97
2023-02-04T02:51:55.210Z,100042.28
2023-02-04T02:54:25.483Z,100042.66
2023-02-04T02:56:58.583Z,100053.66
2023-02-04T02:59:27.489Z,100053.16
2023-02-04T03:02:01.602Z,100056.09
2023-02-04T03:04:34.328Z,100056.97
2023-02-04T03:07:05.234Z,100062.47
2023-02-04T03:09:34.954Z,100080.88
2023-02-04T03:12:05.262Z,100078.38
2023-02-04T03:14:34.309Z,100082.91
2023-02-04T03:17:07.817Z,100084.41
2023-02-04T03:19:36.409Z,100087.78
2023-02-04T03:22:06.461Z,100088.50
2023-02-04T03:24:38.169Z,100094.28
2023-02-04T03:27:07.326Z,100100.47
2023-02-04T03:29:35.492Z,100090.53
2023-02-04T03:32:06.440Z,100097.22
2023-02-04T03:34:36.835Z,100098.31
2023-02-04T03:37:04.986Z,100101.09
2023-02-04T03:39:35.332Z,100099.56
2023-02-04T03:42:03.121Z,100104.38
2023-02-04T03:44:32.199Z,100102.41
2023-02-04T03:47:00.113Z,100110.84
2023-02-04T03:49:28.331Z,100117.53
2023-02-04T03:51:56.056Z,100117.53
2023-02-04T03:54:23.844Z,100118.47
2023-02-04T03:56:51.612Z,100114.44
2023-02-04T03:59:19.386Z,100129.84
2023-02-04T04:01:48.549Z,100134.50
2023-02-04T04:04:16.275Z,100129.09
2023-02-04T04:06:44.074Z,100130.16
2023-02-04T04:09:11.843Z,100139.16
2023-02-04T04:11:39.615Z,100140.69
2023-02-04T04:14:09.726Z,100136.50
2023-02-04T04:16:37.972Z,100148.06
2023-02-04T04:19:07.175Z,100142.03
2023-02-04T04:21:35.012Z,100150.16
2023-02-04T04:24:02.759Z,100141.91
2023-02-04T04:26:30.547Z,100151.56
2023-02-04T04:28:58.243Z,100155.72
2023-02-04T04:31:28.174Z,100162.09
2023-02-04T04:33:56.097Z,100172.91
2023-02-04T04:36:25.261Z,100180.69
2023-02-04T04:38:55.281Z,100177.47
2023-02-04T04:41:23.086Z,100177.81
2023-02-04T04:43:50.852Z,100167.72
2023-02-04T04:46:19.198Z,100177.81
2023-02-04T04:48:47.001Z,100182.19
2023-02-04T04:51:17.085Z,100172.22
2023-02-04T04:53:46.129Z,100179.13
2023-02-04T04:56:13.872Z,100183.50
2023-02-04T04:58:41.665Z,100173.16
2023-02-04T05:01:09.505Z,100169.59
2023-02-04T05:03:37.694Z,100175.56
2023-02-04T05:06:05.638Z,100177.06
2023-02-04T05:08:34.805Z,100182.63
2023-02-04T05:11:04.574Z,100173.53
2023-02-04T05:13:32.372Z,100181.19
2023-02-04T05:16:00.207Z,100172.97
2023-02-04T05:18:28.056Z,100173.50
2023-02-04T05:20:55.881Z,100178.03
2023-02-04T05:23:23.630Z,100180.00
2023-02-04T05:25:51.336Z,100186.94
2023-02-04T05:28:20.445Z,100187.31
2023-02-04T05:30:48.202Z,100182.88
2023-02-04T05:33:16.132Z,100191.09
2023-02-04T05:35:44.234Z,100190.34
2023-02-04T05:38:11.987Z,100195.25
2023-02-04T05:40:39.695Z,100197.44
2023-02-04T05:43:07.443Z,100192.25
2023-02-04T05:45:36.557Z,100192.72
2023-02-04T05:48:04.736Z,100183.38
2023-02-04T05:50:32.627Z,100188.25
2023-02-04T05:53:09.912Z,100196.56
2023-02-04T05:55:37.681Z,100195.38
2023-02-04T05:58:05.419Z,100194.38
2023-02-04T06:00:33.504Z,100192.72
2023-02-04T06:03:02.809Z,100206.25
2023-02-04T06:05:30.573Z,100206.31
2023-02-04T06:07:58.298Z,100218.63
2023-02-04T06:10:26.163Z,100218.63
2023-02-04T06:12:53.949Z,100224.34
2023-02-04T06:15:21.701Z,100238.13
2023-02-04T06:17:49.466Z,100232.81
2023-02-04T06:20:19.013Z,100240.00
2023-02-04T06:22:47.653Z,100248.47
2023-02-04T06:25:15.528Z,100247.97
2023-02-04T06:27:43.307Z,100246.25
2023-02-04T06:30:12.355Z,100247.78
2023-02-04T06:32:40.403Z,100259.25
2023-02-04T06:35:09.066Z,100251.41
2023-02-04T06:37:38.148Z,100254.09
2023-02-04T06:40:07.114Z,100252.50
2023-02-04T06:42:34.768Z,100255.31
2023-02-04T06:45:02.582Z,100257.09
2023-02-04T06:47:30.537Z,100263.88
2023-02-04T06:49:58.305Z,100264.53
2023-02-04T06:52:26.124Z,100266.34
2023-02-04T06:54:55.287Z,100273.66
2023-02-04T06:57:23.181Z,100278.91
2023-02-04T06:59:50.882Z,100280.22
2023-02-04T07:02:18.760Z,100280.06
2023-02-04T07:04:47.794Z,100282.22
2023-02-04T07:07:15.654Z,100288.47
2023-02-04T07:09:43.489Z,100297.44
2023-02-04T07:12:12.951Z,100299.66
2023-02-04T07:14:41.495Z,100300.75
2023-02-04T07:17:09.275Z,100305.09
2023-02-04T07:19:37.189Z,100313.81
2023-02-04T07:22:05.269Z,100320.47
2023-02-04T07:24:33.068Z,100329.03
2023-02-04T07:27:02.591Z,100332.25
2023-02-04T07:29:31.870Z,100338.47
2023-02-04T07:31:59.745Z,100333.91
2023-02-04T07:34:27.676Z,100331.97
2023-02-04T07:36:55.585Z,100338.66
2023-02-04T07:39:23.346Z,100329.97
2023-02-04T07:41:51.074Z,100339.56
2023-02-04T07:44:24.167Z,100338.97
2023-02-04T07:46:53.364Z,100340.91
2023-02-04T07:49:21.138Z,100346.16
2023-02-04T07:51:48.903Z,100343.75
2023-02-04T07:54:16.675Z,100360.56
2023-02-04T07:56:46.752Z,100361.16
2023-02-04T07:59:14.622Z,100365.44
2023-02-04T08:01:42.399Z,100368.31
2023-02-04T08:04:11.608Z,100376.25
2023-02-04T08:06:39.556Z,100367.28
2023-02-04T08:09:09.837Z,100377.63
2023-02-04T08:11:37.999Z,100376.78
2023-02-04T08:14:08.176Z,100383.69
2023-02-04T08:16:35.868Z,100378.06
2023-02-04T08:19:03.668Z,100379.19
2023-02-04T08:21:32.795Z,100379.03
2023-02-04T08:24:00.722Z,100380.84
2023-02-04T08:26:28.613Z,100386.72
2023-02-04T08:28:56.569Z,100390.41
2023-02-04T08:31:24.585Z,100397.47
2023-02-04T08:33:54.522Z,100401.59
2023-02-04T08:36:22.329Z,100405.16
2023-02-04T08:38:51.554Z,100410.19
2023-02-04T08:41:19.296Z,100407.28
2023-02-04T08:43:47.101Z,100404.03
2023-02-04T08:46:15.033Z,100407.06
2023-02-04T08:48:42.831Z,100412.78
2023-02-04T08:51:10.614Z,100408.78
2023-02-04T08:53:40.437Z,100415.03
2023-02-04T08:56:10.446Z,100423.75
2023-02-04T08:58:39.589Z,100431.41
2023-02-04T09:01:11.295Z,100431.06
2023-02-04T09:03:39.418Z,100434.75
2023-02-04T09:06:08.691Z,100435.13
2023-02-04T09:08:36.586Z,100429.44
2023-02-04T09:11:04.915Z,100441.00
2023-02-04T09:13:34.054Z,100439.91
2023-02-04T09:16:04.294Z,100441.66
2023-02-04T09:18:32.724Z,100430.81
2023-02-04T09:21:00.856Z,100437.69
2023-02-04T09:23:28.591Z,100447.28
2023-02-04T09:25:56.452Z,100458.63
2023-02-04T09:28:24.323Z,100458.16
2023-02-04T09:30:53.728Z,100454.09
2023-02-04T09:33:21.487Z,100462.78
2023-02-04T09:35:49.259Z,100465.63
2023-02-04T09:38:17.057Z,100462.44
2023-02-04T09:40:48.659Z,100470.63
2023-02-04T09:43:22.912Z,100473.19
2023-02-04T09:45:50.909Z,100476.19
2023-02-04T09:48:22.842Z,100476.63
2023-02-04T09:50:51.454Z,100482.38
2023-02-04T09:53:22.272Z,100484.25
2023-02-04T09:55:51.723Z,100491.97
2023-02-04T09:58:21.583Z,100490.03
2023-02-04T10:00:53.833Z,100484.81
2023-02-04T10:03:23.370Z,100486.06
2023-02-04T10:05:52.512Z,100486.66
2023-02-04T10:08:30.024Z,100478.41
2023-02-04T10:11:01.090Z,100478.56
2023-02-04T10:13:35.425Z,100475.44
2023-02-04T10:16:10.477Z,100478.72
2023-02-04T10:18:40.458Z,100483.72
2023-02-04T10:21:16.032Z,100492.78
2023-02-04T10:23:47.217Z,100491.66
2023-02-04T10:26:16.857Z,100492.00
2023-02-04T10:28:45.964Z,100486.72
2023-02-04T10:31:30.210Z,100480.28
2023-02-04T10:34:07.601Z,100472.66
2023-02-04T10:36:35.548Z,100468.03
2023-02-04T10:39:04.271Z,100464.41
2023-02-04T10:41:33.382Z,100468.94
2023-02-04T10:44:06.063Z,100472.03
2023-02-04T10:46:34.160Z,100468.00
2023-02-04T10:49:04.492Z,100474.09
2023-02-04T10:51:34.159Z,100465.84
2023-02-04T10:54:30.896Z,100463.91
2023-02-04T10:57:00.840Z,100464.41
2023-02-04T10:59:29.167Z,100470.28
2023-02-04T11:01:58.500Z,100468.31
2023-02-04T11:04:28.796Z,100469.38
2023-02-04T11:06:57.901Z,100480.06
2023-02-04T11:09:27.840Z,100485.66
2023-02-04T11:11:59.688Z,100493.78
2023-02-04T11:14:30.345Z,100492.19
2023-02-04T11:17:01.717Z,100496.00
2023-02-04T11:19:35.817Z,100487.16
2023-02-04T11:22:22.330Z,100478.03
2023-02-04T11:24:50.666Z,100481.28
2023-02-04T11:27:24.583Z,100472.44
2023-02-04T11:29:52.865Z,100473.03
2023-02-04T11:32:33.596Z,100472.19
2023-02-04T11:35:24.477Z,100480.66
2023-02-04T11:37:55.809Z,100472.78
2023-02-04T11:40:27.494Z,100475.22
2023-02-04T11:43:01.055Z,100479.25
2023-02-04T11:45:33.022Z,100465.63
2023-02-04T11:48:03.443Z,100472.00
2023-02-04T11:50:33.782Z,100469.88
2023-02-04T11:53:05.479Z,100471.59
2023-02-04T11:55:37.327Z,100465.63
2023-02-04T11:58:05.425Z,100461.63
2023-02-04T12:00:34.280Z,100467.03
2023-02-04T12:03:11.861Z,100465.47
2023-02-04T12:05:42.732Z,100472.03
2023-02-04T12:08:14.281Z,100476.00
2023-02-04T12:10:49.337Z,100477.94
2023-02-04T12:13:19.720Z,100474.22
2023-02-04T12:15:56.685Z,100475.16
2023-02-04T12:18:24.524Z,100471.91
2023-02-04T12:20:52.324Z,100477.16
2023-02-04T12:23:22.002Z,100479.50
2023-02-04T12:25:50.216Z,100479.56
2023-02-04T12:28:18.387Z,100483.31
2023-02-04T12:30:46.347Z,100482.69
2023-02-04T12:33:15.049Z,100490.94
2023-02-04T12:35:45.021Z,100475.69
2023-02-04T12:38:12.884Z,100476.13
2023-02-04T12:40:42.098Z,100477.72
2023-02-04T12:43:09.854Z,100485.34
2023-02-04T12:45:38.268Z,100488.88
2023-02-04T12:48:06.272Z,100491.25
2023-02-04T12:50:34.198Z,100499.81
2023-02-04T12:53:01.915Z,100498.00
2023-02-04T12:55:30.972Z,100499.56
2023-02-04T12:58:00.355Z,100502.44
2023-02-04T13:00:28.309Z,100502.47
2023-02-04T13:02:58.906Z,100494.09
2023-02-04T13:05:27.178Z,100499.69
2023-02-04T13:07:55.210Z,100493.56
2023-02-04T13:10:24.050Z,100479.38
2023-02-04T13:12:51.933Z,100491.47
2023-02-04T13:15:21.220Z,100485.88
2023-02-04T13:17:48.967Z,100494.34
2023-02-04T13:20:16.718Z,100497.69
2023-02-04T13:22:44.576Z,100497.84
2023-02-04T13:25:16.038Z,100486.16
2023-02-04T13:27:46.100Z,100485.44
2023-02-04T13:30:15.945Z,100496.75
2023-02-04T13:32:45.123Z,100493.72
2023-02-04T13:35:13.018Z,100493.94
2023-02-04T13:37:40.734Z,100489.69
2023-02-04T13:40:09.495Z,100495.84
2023-02-04T13:42:37.314Z,100497.44
2023-02-04T13:45:07.587Z,100497.97
2023-02-04T13:47:37.672Z,100506.44
2023-02-04T13:50:08.109Z,100514.78
2023-02-04T13:52:35.972Z,100512.19
2023-02-04T13:55:03.714Z,100519.06
2023-02-04T13:57:32.906Z,100525.50
2023-02-04T14:00:00.639Z,100521.25
2023-02-04T14:02:30.508Z,100512.22
2023-02-04T14:04:58.672Z,100514.91
2023-02-04T14:07:27.944Z,100511.94
2023-02-04T14:10:05.389Z,100509.75
2023-02-04T14:12:33.120Z,100511.59
2023-02-04T14:15:00.889Z,100511.00
2023-02-04T14:17:28.673Z,100515.72
2023-02-04T14:19:56.442Z,100514.91
2023-02-04T14:22:24.316Z,100517.38
2023-02-04T14:24:53.421Z,100517.09
2023-02-04T14:27:21.172Z,100517.56
2023-02-04T14:29:51.202Z,100518.28
2023-02-04T14:32:20.863Z,100518.81
2023-02-04T14:34:48.691Z,100525.34
2023-02-04T14:37:16.407Z,100520.19
2023-02-04T14:39:44.287Z,100526.50
2023-02-04T14:42:15.450Z,100529.06
2023-02-04T14:44:43.246Z,100527.63
2023-02-04T14:47:11.069Z,100531.13
2023-02-04T14:49:39.294Z,100528.09
2023-02-04T14:52:07.832Z,100532.13
2023-02-04T14:54:36.511Z,100535.56
2023-02-04T14:57:04.439Z,100534.03
2023-02-04T14:59:35.851Z,100532.00
2023-02-04T15:02:04.106Z,100533.44
2023-02-04T15:04:31.854Z,100538.38
2023-02-04T15:07:00.710Z,100541.22
2023-02-04T15:09:28.664Z,100540.25
2023-02-04T15:11:56.894Z,100542.72
2023-02-04T15:14:24.670Z,100536.13
2023-02-04T15:16:53.812Z,100541.19
2023-02-04T15:19:23.562Z,100539.75
2023-02-04T15:21:54.007Z,100546.31
2023-02-04T15:24:22.849Z,100542.63
2023-02-04T15:26:51.336Z,100550.50
2023-02-04T15:29:21.361Z,100546.13
2023-02-04T15:31:49.239Z,100545.53
2023-02-04T15:34:20.295Z,100549.19
2023-02-04T15:36:48.052Z,100556.19
2023-02-04T15:39:15.828Z,100550.72
2023-02-04T15:41:43.610Z,100556.59
2023-02-04T15:44:12.487Z,100565.69
2023-02-04T15:46:40.211Z,100567.44
2023-02-04T15:49:09.080Z,100567.63
2023-02-04T15:51:38.172Z,100568.84
2023-02-04T15:54:07.754Z,100567.88
2023-02-04T15:56:35.654Z,100564.97
2023-02-04T15:59:04.003Z,100574.97
2023-02-04T16:01:31.991Z,100569.81
2023-02-04T16:04:00.798Z,100577.06
2023-02-04T16:06:28.824Z,100586.94
2023-02-04T16:08:57.935Z,100589.56
2023-02-04T16:11:25.721Z,100581.84
2023-02-04T16:13:53.572Z,100581.25
2023-02-04T16:16:21.410Z,100595.66
2023-02-04T16:18:49.123Z,100585.13
2023-02-04T16:21:17.017Z,100586.91
2023-02-04T16:23:44.708Z,100593.50
2023-02-04T16:26:14.098Z,100594.69
2023-02-04T16:28:42.121Z,100602.06
2023-02-04T16:31:10.686Z,100597.88
2023-02-04T16:33:38.468Z,100604.25
2023-02-04T16:36:11.677Z,100610.91
2023-02-04T16:38:40.008Z,100618.19
2023-02-04T16:41:08.289Z,100616.28
2023-02-04T16:43:38.041Z,100614.59
2023-02-04T16:46:08.418Z,100628.09
2023-02-04T16:48:37.252Z,100615.13
2023-02-04T16:51:05.481Z,100625.63
2023-02-04T16:53:33.224Z,100633.22
2023-02-04T16:56:02.137Z,100627.59
2023-02-04T16:58:30.147Z,100633.06
2023-02-04T17:00:59.869Z,100629.81
2023-02-04T17:03:28.438Z,100634.09
2023-02-04T17:05:56.480Z,100633.06
2023-02-04T17:08:24.337Z,100629.03
2023-02-04T17:11:09.562Z,100632.97
2023-02-04T17:13:37.366Z,100626.09
2023-02-04T17:16:08.909Z,100635.06
2023-02-04T17:18:36.821Z,100640.03
2023-02-04T17:21:04.923Z,100644.91
2023-02-04T17:23:33.281Z,100641.69
2023-02-04T17:26:01.090Z,100643.84
2023-02-04T17:28:28.884Z,100642.31
2023-02-04T17:30:56.794Z,100644.09
2023-02-04T17:33:26.189Z,100642.94
2023-02-04T17:35:54.016Z,100651.59
2023-02-04T17:38:22.361Z,100652.47
2023-02-04T17:40:50.472Z,100654.59
2023-02-04T17:43:18.523Z,100651.22
2023-02-04T17:45:46.421Z,100644.31
2023-02-04T17:48:15.040Z,100652.34
2023-02-04T17:50:44.436Z,100662.09
2023-02-04T17:53:13.118Z,100658.50
2023-02-04T17:55:41.500Z,100663.97
2023-02-04T17:58:14.829Z,100666.53
2023-02-04T18:00:44.765Z,100673.75
2023-02-04T18:03:14.674Z,100674.47
2023-02-04T18:05:47.531Z,100673.31
2023-02-04T18:08:19.691Z,100672.84
2023-02-04T18:10:49.372Z,100675.09
2023-02-04T18:13:19.471Z,100673.91
2023-02-04T18:15:50.628Z,100674.03
2023-02-04T18:18:26.632Z,100675.09
2023-02-04T18:21:02.153Z,100675.16
2023-02-04T18:23:31.739Z,100673.56
2023-02-04T18:26:08.696Z,100674.13
2023-02-04T18:28:36.812Z,100665.16
2023-02-04T18:31:18.079Z,100664.63
2023-02-04T18:33:49.990Z,100672.50
2023-02-04T18:36:23.069Z,100667.53
2023-02-04T18:38:51.310Z,100681.75
2023-02-04T18:41:33.880Z,100674.41
2023-02-04T18:44:17.735Z,100676.22
2023-02-04T18:46:48.286Z,100672.81
2023-02-04T18:49:25.689Z,100667.00
2023-02-04T18:51:55.671Z,100675.94
2023-02-04T18:54:36.784Z,100674.34
2023-02-04T18:57:28.805Z,100677.22
2023-02-04T19:00:27.515Z,100688.41
2023-02-04T19:02:58.469Z,100686.44
2023-02-04T19:05:34.274Z,100686.13
2023-02-04T19:08:33.241Z,100677.81
2023-02-04T19:11:01.280Z,100686.41
2023-02-04T19:13:39.436Z,100692.50
2023-02-04T19:16:22.629Z,100694.22
2023-02-04T19:18:51.257Z,100686.22
2023-02-04T19:21:25.923Z,100685.19
2023-02-04T19:23:59.903Z,100676.50
2023-02-04T19:26:35.700Z,100678.25
2023-02-04T19:29:39.981Z,100672.34
2023-02-04T19:32:28.758Z,100683.09
2023-02-04T19:35:01.042Z,100688.28
2023-02-04T19:37:38.165Z,100686.47
2023-02-04T19:40:23.659Z,100682.97
2023-02-04T19:42:55.475Z,100678.63
2023-02-04T19:45:26.462Z,100684.69
2023-02-04T19:47:55.954Z,100681.19
2023-02-04T19:50:28.711Z,100685.50
2023-02-04T19:53:02.550Z,100683.81
2023-02-04T19:55:38.052Z,100682.88
2023-02-04T19:58:17.294Z,100683.72
2023-02-04T20:00:57.168Z,100680.31
2023-02-04T20:03:34.226Z,100678.50
2023-02-04T20:06:17.426Z,100682.88
2023-02-04T20:08:48.808Z,100693.88
2023-02-04T20:11:53.010Z,100685.75
2023-02-04T20:14:47.845Z,100688.41
2023-02-04T20:17:25.066Z,100695.50
2023-02-04T20:19:52.813Z,100699.00
2023-02-04T20:22:45.736Z,100696.22
2023-02-04T20:25:36.151Z,100702.19
2023-02-04T20:28:26.692Z,100707.63
2023-02-04T20:30:56.187Z,100708.47
2023-02-04T20:33:28.108Z,100709.25
2023-02-04T20:36:30.779Z,100718.59
2023-02-04T20:39:24.838Z,100719.53
2023-02-04T20:41:52.719Z,100714.41
2023-02-04T20:44:27.911Z,100721.06
2023-02-04T20:47:03.250Z,100724.84
2023-02-04T20:49:40.494Z,100729.41
2023-02-04T20:52:32.346Z,100728.03
2023-02-04T20:55:02.404Z,100725.03
2023-02-04T20:57:30.230Z,100728.22
2023-02-04T20:59:59.424Z,100727.41
2023-02-04T21:02:30.820Z,100736.00
2023-02-04T21:05:01.830Z,100742.19
2023-02-04T21:07:29.741Z,100731.09
2023-02-04T21:09:57.876Z,100736.00
2023-02-04T21:12:26.612Z,100724.00
2023-02-04T21:14:54.425Z,100729.69
2023-02-04T21:17:23.740Z,100736.38
2023-02-04T21:19:51.500Z,100739.78
2023-02-04T21:22:19.308Z,100740.75
2023-02-04T21:24:47.172Z,100729.53
2023-02-04T21:27:17.409Z,100738.38
2023-02-04T21:29:47.278Z,100728.69
2023-02-04T21:32:15.306Z,100727.53
2023-02-04T21:34:44.499Z,100740.94
2023-02-04T21:37:12.322Z,100736.34
2023-02-04T21:39:40.040Z,100735.97
2023-02-04T21:42:14.108Z,100735.75
2023-02-04T21:44:41.875Z,100736.22
2023-02-04T21:47:09.625Z,100739.78
2023-02-04T21:49:40.171Z,100751.72
2023-02-04T21:52:11.183Z,100748.00
2023-02-04T21:54:38.992Z,100747.03
2023-02-04T21:57:06.758Z,100744.66
2023-02-04T21:59:34.725Z,100747.31
2023-02-04T22:02:02.584Z,100747.16
2023-02-04T22:04:30.472Z,100744.41
2023-02-04T22:06:58.237Z,100747.94
2023-02-04T22:09:27.457Z,100749.66
2023-02-04T22:11:55.220Z,100746.06
2023-02-04T22:14:23.033Z,100748.00
2023-02-04T22:16:50.807Z,100750.69
2023-02-04T22:19:20.579Z,100752.34
2023-02-04T22:21:48.372Z,100737.94
2023-02-04T22:24:16.155Z,100750.22
2023-02-04T22:26:45.335Z,100744.69
2023-02-04T22:29:13.104Z,100739.28
2023-02-04T22:31:40.901Z,100743.44
2023-02-04T22:34:09.101Z,100732.88
2023-02-04T22:36:36.903Z,100739.03
2023-02-04T22:39:04.709Z,100738.88
2023-02-04T22:41:32.492Z,100725.97
2023-02-04T22:44:01.642Z,100730.41
2023-02-04T22:46:29.545Z,100736.72
2023-02-04T22:48:57.494Z,100732.41
2023-02-04T22:51:25.291Z,100741.09
2023-02-04T22:53:53.022Z,100738.53
2023-02-04T22:56:21.397Z,100746.59
2023-02-04T22:58:49.908Z,100750.53
2023-02-04T23:01:20.271Z,100753.16
2023-02-04T23:03:49.514Z,100753.75
2023-02-04T23:06:17.561Z,100761.44
2023-02-04T23:08:45.399Z,100758.66
2023-02-04T23:11:13.162Z,100752.41
2023-02-04T23:13:40.988Z,100751.75
2023-02-04T23:16:08.890Z,100754.38
2023-02-04T23:18:38.125Z,100745.72
2023-02-04T23:21:06.465Z,100738.53
2023-02-04T23:23:34.634Z,100750.06
2023-02-04T23:26:03.319Z,100750.41
2023-02-04T23:28:31.976Z,100751.13
2023-02-04T23:30:59.930Z,100745.53
2023-02-04T23:33:27.680Z,100745.81
2023-02-04T23:35:56.919Z,100746.19
2023-02-04T23:38:24.878Z,100744.50
2023-02-04T23:40:52.921Z,100748.72
2023-02-04T23:43:20.746Z,100751.25
2023-02-04T23:45:48.521Z,100761.41
2023-02-04T23:48:16.361Z,100758.06
2023-02-04T23:50:44.327Z,100758.50
2023-02-04T23:53:13.535Z,100758.56
2023-02-04T23:55:41.389Z,100746.00
2023-02-04T23:58:11.255Z,100743.13
